Boulogne, France

11:27 PM CET on February 12, 2016 (GMT +0100)
Paris-Plage | | Change Station
CLOSE
Current Station
Airport
Location: Le Touquet,
Elevation: 46 ft
Nearby Weather Stations

Elev 46 ft 50.51 °N, 1.62 °E | Updated 27 minutes ago

Overcast
Overcast
36 °F
Feels Like 36 °F
N
0
Wind Variable Wind from North

Today
High -- | Low -- °F
--% Chance of Precip.
Yesterday
High -- | Low -- °F
Precip. -- in
Pressure 29.39 in
Visibility 6.2 miles
Clouds Mostly Cloudy 3200 ft
Mostly Cloudy 3900 ft
Overcast 6800 ft
Dew Point 32 °F
Humidity 87%
Rainfall 0.00 in
Snow Depth Not available.
8:12 AM 6:04 PM
Waxing Crescent, 24% visible
METAR LFAT 122200Z AUTO 00000KT 9999 BKN032 BKN039 OVC068 02/00 Q0995
Pressure 29.39 in
Visibility 6.2 miles
Clouds Mostly Cloudy 3200 ft
Mostly Cloudy 3900 ft
Overcast 6800 ft
Dew Point 32 °F
Humidity 87%
Rainfall 0.00 in
Snow Depth Not available.
8:12 AM 6:04 PM
Waxing Crescent, 24% visible
METAR LFAT 122200Z AUTO 00000KT 9999 BKN032 BKN039 OVC068 02/00 Q0995

10-Day Weather Forecast

Almanac

Astronomy

Feb. 12, 2016 Rise Set
Actual Time
Civil Twilight
Nautical Twilight
Astronomical Twilight
Moon
Length of Visible Light
Length of Day
Tomorrow will be .
, % of the Moon is Illuminated

Today's Extremes

Country Highs Country Lows

Community

WunderPhotos

Upload Photos

1,892,421 photos uploaded!

WunderBlog® & News

Nearby

Air Quality

  Air Quality AQ Index Pollutant
Not available.

Snow Depth

Station Depth Elevation

Earthquake Activity

City Distance Mag. Time & Date
Minimum magnitude displayed is 2.5.

Coastal Water Temperatures

Place Temperature

Stations

Nearby Weather Stations

Station Location Temp. Windchill Dew Point Humidity Wind Precip. Elev Updated Type